createdAt,value
2019-02-10T00:00:39.542Z,3.70
2019-02-10T00:01:39.534Z,4.30
2019-02-10T00:02:39.524Z,3.40
2019-02-10T00:03:40.971Z,3.70
2019-02-10T00:04:39.492Z,4.80
2019-02-10T00:05:39.505Z,4.20
2019-02-10T00:06:39.501Z,4.90
2019-02-10T00:07:39.456Z,4.10
2019-02-10T00:08:39.460Z,5.20
2019-02-10T00:09:39.477Z,4.40
2019-02-10T00:10:39.427Z,3.40
2019-02-10T00:11:39.433Z,3.50
2019-02-10T00:12:39.408Z,4.40
2019-02-10T00:13:39.407Z,3.60
2019-02-10T00:14:39.409Z,3.30
2019-02-10T00:15:39.385Z,3.50
2019-02-10T00:16:39.367Z,4.40
2019-02-10T00:17:39.367Z,3.80
2019-02-10T00:18:39.337Z,3.90
2019-02-10T00:19:39.345Z,3.30
2019-02-10T00:20:39.318Z,3.30
2019-02-10T00:21:39.301Z,3.40
2019-02-10T00:22:39.366Z,4.20
2019-02-10T00:23:39.330Z,3.60
2019-02-10T00:24:39.273Z,4.30
2019-02-10T00:25:39.280Z,3.60
2019-02-10T00:26:39.269Z,3.20
2019-02-10T00:27:39.239Z,3.40
2019-02-10T00:28:39.246Z,3.10
2019-02-10T00:29:39.217Z,4.20
2019-02-10T00:30:39.213Z,3.10
2019-02-10T00:31:39.190Z,3.50
2019-02-10T00:32:39.190Z,3.60
2019-02-10T00:33:39.178Z,3.70
2019-02-10T00:34:39.164Z,3.30
2019-02-10T00:35:39.150Z,3.80
2019-02-10T00:36:39.145Z,3.30
2019-02-10T00:37:39.134Z,3.60
2019-02-10T00:38:39.123Z,3.70
2019-02-10T00:39:39.112Z,3.20
2019-02-10T00:40:39.146Z,4.10
2019-02-10T00:41:39.083Z,4.50
2019-02-10T00:42:39.090Z,3.70
2019-02-10T00:43:39.069Z,3.80
2019-02-10T00:44:39.049Z,3.80
2019-02-10T00:45:39.053Z,3.10
2019-02-10T00:46:39.052Z,4.10
2019-02-10T00:47:39.034Z,2.80
2019-02-10T00:48:39.033Z,3.40
2019-02-10T00:49:39.000Z,3.60
2019-02-10T00:50:38.990Z,3.30
2019-02-10T00:51:38.995Z,3.00
2019-02-10T00:52:39.007Z,3.00
2019-02-10T00:53:38.967Z,2.50
2019-02-10T00:54:38.963Z,2.80
2019-02-10T00:55:38.983Z,2.90
2019-02-10T00:56:38.932Z,3.10
2019-02-10T00:57:39.050Z,3.10
2019-02-10T00:58:38.981Z,3.10
2019-02-10T00:59:39.024Z,4.00
2019-02-10T01:00:39.018Z,4.80
2019-02-10T01:01:38.888Z,2.90
2019-02-10T01:02:39.093Z,3.20
2019-02-10T01:03:38.885Z,2.50
2019-02-10T01:04:38.919Z,3.90
2019-02-10T01:05:38.845Z,2.90
2019-02-10T01:06:41.515Z,3.10
2019-02-10T01:07:38.853Z,3.80
2019-02-10T01:08:38.819Z,4.00
2019-02-10T01:09:38.781Z,3.90
2019-02-10T01:10:38.775Z,2.50
2019-02-10T01:11:39.859Z,3.10
2019-02-10T01:12:38.834Z,3.00
2019-02-10T01:13:38.780Z,3.20
2019-02-10T01:14:38.970Z,3.00
2019-02-10T01:15:38.707Z,3.50
2019-02-10T01:16:38.699Z,3.60
2019-02-10T01:17:38.827Z,3.70
2019-02-10T01:18:38.681Z,2.60
2019-02-10T01:19:38.682Z,3.00
2019-02-10T01:20:38.728Z,2.50
2019-02-10T01:21:38.910Z,3.70
2019-02-10T01:22:38.710Z,2.50
2019-02-10T01:23:38.621Z,3.30
2019-02-10T01:24:38.617Z,2.90
2019-02-10T01:25:38.608Z,3.00
2019-02-10T01:26:38.584Z,2.60
2019-02-10T01:27:38.589Z,2.80
2019-02-10T01:28:38.564Z,3.20
2019-02-10T01:29:38.556Z,3.10
2019-02-10T01:30:38.562Z,2.60
2019-02-10T01:31:38.528Z,2.70
2019-02-10T01:32:38.541Z,2.40
2019-02-10T01:33:38.515Z,3.20
2019-02-10T01:34:38.509Z,3.00
2019-02-10T01:35:38.482Z,2.50
2019-02-10T01:36:38.542Z,2.50
2019-02-10T01:37:38.480Z,2.20
2019-02-10T01:38:38.471Z,2.90
2019-02-10T01:39:38.451Z,2.50
2019-02-10T01:40:38.435Z,2.70
2019-02-10T01:41:38.421Z,2.90
2019-02-10T01:42:38.446Z,2.80
2019-02-10T01:43:38.394Z,2.80
2019-02-10T01:44:38.398Z,2.50
2019-02-10T01:45:38.382Z,2.40
2019-02-10T01:46:38.395Z,2.50
2019-02-10T01:47:38.370Z,2.30
2019-02-10T01:48:38.343Z,2.40
2019-02-10T01:49:38.326Z,2.50
2019-02-10T01:50:38.325Z,2.30
2019-02-10T01:51:38.338Z,2.60
2019-02-10T01:52:38.309Z,2.90
2019-02-10T01:53:38.296Z,2.10
2019-02-10T01:54:38.283Z,2.50
2019-02-10T01:55:38.333Z,3.20
2019-02-10T01:56:38.279Z,2.60
2019-02-10T01:57:38.269Z,2.70
2019-02-10T01:58:38.237Z,3.10
2019-02-10T01:59:38.238Z,2.30
2019-02-10T02:00:38.233Z,2.90
2019-02-10T02:01:38.210Z,2.50
2019-02-10T02:02:38.191Z,2.50
2019-02-10T02:03:38.196Z,3.20
2019-02-10T02:04:38.188Z,2.90
2019-02-10T02:05:38.207Z,2.90
2019-02-10T02:06:38.154Z,2.70
2019-02-10T02:07:38.161Z,2.60
2019-02-10T02:08:38.129Z,2.40
2019-02-10T02:09:38.123Z,2.80
2019-02-10T02:10:38.112Z,2.50
2019-02-10T02:11:38.099Z,3.30
2019-02-10T02:12:38.095Z,3.20
2019-02-10T02:13:38.080Z,2.90
2019-02-10T02:14:38.065Z,3.30
2019-02-10T02:15:38.067Z,3.40
2019-02-10T02:16:38.054Z,3.60
2019-02-10T02:17:38.038Z,2.70
2019-02-10T02:18:38.013Z,2.90
2019-02-10T02:19:38.008Z,3.20
2019-02-10T02:20:38.013Z,3.00
2019-02-10T02:21:37.989Z,2.30
2019-02-10T02:22:37.984Z,2.70
2019-02-10T02:23:37.963Z,3.00
2019-02-10T02:24:37.958Z,3.30
2019-02-10T02:25:37.948Z,2.90
2019-02-10T02:26:37.948Z,2.90
2019-02-10T02:27:37.953Z,2.80
2019-02-10T02:28:37.910Z,2.60
2019-02-10T02:29:37.906Z,2.60
2019-02-10T02:30:37.890Z,3.20
2019-02-10T02:31:37.895Z,3.60
2019-02-10T02:32:37.919Z,2.70
2019-02-10T02:33:37.858Z,3.60
2019-02-10T02:34:37.845Z,2.80
2019-02-10T02:35:37.860Z,4.50
2019-02-10T02:36:37.827Z,4.80
2019-02-10T02:37:37.844Z,4.90
2019-02-10T02:38:37.833Z,3.20
2019-02-10T02:39:37.817Z,3.10
2019-02-10T02:40:37.787Z,2.50
2019-02-10T02:41:37.769Z,3.10
2019-02-10T02:42:37.764Z,3.00
2019-02-10T02:43:37.753Z,3.00
2019-02-10T02:44:37.750Z,2.70
2019-02-10T02:45:37.723Z,2.40
2019-02-10T02:46:37.765Z,2.70
2019-02-10T02:47:37.704Z,2.70
2019-02-10T02:48:37.731Z,2.80
2019-02-10T02:49:37.703Z,2.40
2019-02-10T02:50:37.705Z,2.90
2019-02-10T02:51:37.663Z,3.30
2019-02-10T02:52:37.651Z,2.90
2019-02-10T02:53:37.673Z,2.20
2019-02-10T02:54:37.711Z,2.70
2019-02-10T02:55:37.627Z,2.10
2019-02-10T02:56:37.625Z,3.00
2019-02-10T02:57:37.599Z,2.20
2019-02-10T02:58:37.594Z,2.40
2019-02-10T02:59:37.590Z,1.90
2019-02-10T03:00:37.570Z,2.40
2019-02-10T03:01:37.558Z,2.90
2019-02-10T03:02:37.550Z,2.70
2019-02-10T03:03:37.543Z,2.60
2019-02-10T03:04:37.540Z,2.40
2019-02-10T03:05:37.503Z,2.10
2019-02-10T03:06:37.504Z,2.70
2019-02-10T03:07:37.500Z,2.90
2019-02-10T03:08:37.520Z,3.10
2019-02-10T03:09:37.466Z,2.20
2019-02-10T03:10:37.522Z,2.30
2019-02-10T03:11:37.450Z,2.10
2019-02-10T03:12:37.471Z,2.40
2019-02-10T03:13:37.431Z,2.20
2019-02-10T03:14:37.415Z,2.20
2019-02-10T03:15:37.402Z,2.30
2019-02-10T03:16:37.401Z,2.60
2019-02-10T03:17:37.382Z,2.50
2019-02-10T03:18:37.367Z,2.90
2019-02-10T03:19:37.376Z,2.90
2019-02-10T03:20:37.435Z,3.50
2019-02-10T03:21:37.340Z,2.30
2019-02-10T03:22:37.330Z,2.40
2019-02-10T03:23:37.328Z,2.30
2019-02-10T03:24:37.350Z,2.40
2019-02-10T03:25:37.303Z,2.00
2019-02-10T03:26:37.322Z,2.60
2019-02-10T03:27:37.281Z,1.80
2019-02-10T03:28:37.267Z,2.50
2019-02-10T03:29:37.261Z,3.00
2019-02-10T03:30:37.246Z,2.10
2019-02-10T03:31:37.227Z,2.90
2019-02-10T03:32:37.259Z,2.30
2019-02-10T03:33:37.227Z,2.50
2019-02-10T03:34:37.198Z,2.60
2019-02-10T03:35:37.185Z,2.30
2019-02-10T03:36:37.183Z,2.40
2019-02-10T03:37:37.167Z,2.70
2019-02-10T03:38:37.159Z,2.60
2019-02-10T03:39:37.147Z,2.60
2019-02-10T03:40:37.139Z,2.30
2019-02-10T03:41:37.129Z,2.00
2019-02-10T03:42:37.115Z,2.30
2019-02-10T03:43:37.101Z,1.80
2019-02-10T03:44:37.089Z,3.00
2019-02-10T03:45:37.128Z,2.00
2019-02-10T03:46:37.070Z,2.00
2019-02-10T03:47:37.057Z,2.00
2019-02-10T03:48:37.110Z,2.30
2019-02-10T03:49:37.030Z,2.30
2019-02-10T03:50:37.024Z,2.70
2019-02-10T03:51:37.026Z,2.50
2019-02-10T03:52:37.040Z,2.60
2019-02-10T03:53:36.992Z,2.30
2019-02-10T03:54:36.980Z,2.20
2019-02-10T03:55:36.976Z,2.50
2019-02-10T03:56:37.024Z,2.40
2019-02-10T03:57:36.951Z,2.20
2019-02-10T03:58:36.954Z,2.10
2019-02-10T03:59:36.935Z,2.10
2019-02-10T04:00:36.920Z,2.40
2019-02-10T04:01:36.904Z,2.50
2019-02-10T04:02:36.889Z,2.00
2019-02-10T04:03:36.882Z,2.10
2019-02-10T04:04:36.876Z,2.20
2019-02-10T04:05:36.920Z,2.20
2019-02-10T04:06:36.912Z,1.70
2019-02-10T04:07:36.834Z,2.00
2019-02-10T04:08:36.822Z,2.20
2019-02-10T04:09:36.846Z,2.80
2019-02-10T04:10:36.814Z,2.60
2019-02-10T04:11:36.793Z,2.30
2019-02-10T04:12:36.777Z,2.20
2019-02-10T04:13:36.764Z,2.30
2019-02-10T04:14:36.758Z,2.30
2019-02-10T04:15:36.762Z,2.20
2019-02-10T04:16:36.749Z,2.40
2019-02-10T04:17:36.794Z,2.40
2019-02-10T04:18:36.795Z,2.70
2019-02-10T04:19:36.700Z,2.20
2019-02-10T04:20:36.708Z,2.10
2019-02-10T04:21:36.685Z,2.40
2019-02-10T04:22:43.853Z,2.50
2019-02-10T04:24:18.824Z,2.30
2019-02-10T04:25:18.793Z,2.50
2019-02-10T04:26:18.783Z,2.00
2019-02-10T04:27:18.778Z,2.50
2019-02-10T04:28:18.783Z,2.10
2019-02-10T04:29:18.755Z,2.30
2019-02-10T04:30:18.770Z,2.40
2019-02-10T04:31:18.731Z,2.40
2019-02-10T04:32:18.720Z,2.90
2019-02-10T04:33:18.707Z,2.00
2019-02-10T04:34:18.693Z,2.50
2019-02-10T04:35:18.689Z,3.20
2019-02-10T04:36:18.747Z,2.40
2019-02-10T04:37:18.664Z,2.10
2019-02-10T04:38:18.661Z,1.90
2019-02-10T04:39:18.652Z,2.30
2019-02-10T04:40:18.634Z,2.10
2019-02-10T04:41:18.638Z,1.80
2019-02-10T04:42:18.609Z,2.40
2019-02-10T04:43:18.596Z,2.10
2019-02-10T04:44:18.590Z,2.30
2019-02-10T04:45:18.576Z,2.00
2019-02-10T04:46:18.561Z,2.50
2019-02-10T04:47:18.561Z,2.20
2019-02-10T04:48:18.546Z,2.20
2019-02-10T04:49:18.531Z,2.30
2019-02-10T04:50:18.517Z,2.10
2019-02-10T04:51:18.506Z,2.30
2019-02-10T04:52:18.499Z,1.90
2019-02-10T04:53:18.498Z,2.20
2019-02-10T04:54:18.479Z,2.30
2019-02-10T04:55:18.468Z,2.00
2019-02-10T04:56:18.457Z,2.30
2019-02-10T04:57:18.439Z,2.10
2019-02-10T04:58:18.441Z,2.20
2019-02-10T04:59:18.434Z,2.10
2019-02-10T05:00:18.412Z,2.60
2019-02-10T05:01:18.405Z,2.30
2019-02-10T05:02:18.409Z,2.30
2019-02-10T05:03:18.385Z,2.00
2019-02-10T05:04:18.372Z,2.40
2019-02-10T05:05:18.361Z,3.10
2019-02-10T05:06:18.347Z,2.80
2019-02-10T05:07:18.346Z,2.30
2019-02-10T05:08:18.328Z,2.30
2019-02-10T05:09:18.310Z,2.10
2019-02-10T05:10:18.309Z,2.20
2019-02-10T05:11:18.289Z,2.40
2019-02-10T05:12:18.279Z,2.20
2019-02-10T05:13:18.273Z,1.70
2019-02-10T05:14:18.283Z,1.70
2019-02-10T05:15:18.268Z,1.80
2019-02-10T05:16:18.245Z,2.60
2019-02-10T05:17:18.226Z,2.10
2019-02-10T05:18:18.214Z,2.10
2019-02-10T05:19:18.208Z,2.20
2019-02-10T05:20:18.190Z,2.50
2019-02-10T05:21:18.212Z,2.20
2019-02-10T05:22:18.168Z,2.10
2019-02-10T05:23:18.162Z,3.00
2019-02-10T05:24:18.152Z,1.80
2019-02-10T05:25:18.141Z,2.30
2019-02-10T05:26:18.124Z,2.40
2019-02-10T05:27:18.116Z,2.50
2019-02-10T05:28:18.107Z,2.00
2019-02-10T05:29:18.091Z,2.30
2019-02-10T05:30:18.081Z,2.40
2019-02-10T05:31:18.078Z,2.10
2019-02-10T05:32:18.064Z,2.30
2019-02-10T05:33:18.069Z,2.20
2019-02-10T05:34:18.042Z,2.60
2019-02-10T05:35:18.023Z,2.40
2019-02-10T05:36:18.016Z,2.10
2019-02-10T05:37:18.037Z,2.40
2019-02-10T05:38:17.999Z,2.10
2019-02-10T05:39:18.001Z,2.10
2019-02-10T05:40:17.976Z,2.50
2019-02-10T05:41:17.964Z,2.40
2019-02-10T05:42:17.955Z,2.20
2019-02-10T05:43:17.939Z,2.30
2019-02-10T05:44:17.931Z,2.40
2019-02-10T05:45:17.917Z,2.20
2019-02-10T05:46:17.909Z,2.10
2019-02-10T05:47:19.258Z,2.40
2019-02-10T05:48:17.888Z,2.20
2019-02-10T05:49:17.872Z,2.70
2019-02-10T05:50:17.866Z,1.90
2019-02-10T05:51:17.852Z,2.60
2019-02-10T05:52:17.842Z,2.80
2019-02-10T05:53:17.822Z,2.90
2019-02-10T05:54:17.815Z,2.40
2019-02-10T05:55:17.828Z,2.60
2019-02-10T05:56:17.812Z,2.20
2019-02-10T05:57:17.784Z,2.20
2019-02-10T05:58:17.779Z,2.30
2019-02-10T05:59:17.779Z,2.40
2019-02-10T06:00:17.751Z,2.00
2019-02-10T06:01:17.738Z,3.10
2019-02-10T06:02:17.729Z,2.40
2019-02-10T06:03:17.717Z,2.10
2019-02-10T06:04:17.713Z,2.00
2019-02-10T06:05:17.715Z,2.50
2019-02-10T06:06:17.691Z,2.60
2019-02-10T06:07:17.678Z,2.30
2019-02-10T06:08:17.671Z,2.10
2019-02-10T06:09:17.658Z,2.70
2019-02-10T06:10:17.646Z,2.10
2019-02-10T06:11:17.636Z,2.30
2019-02-10T06:12:17.680Z,2.10
2019-02-10T06:13:17.614Z,2.40
2019-02-10T06:14:17.597Z,2.60
2019-02-10T06:15:17.589Z,2.90
2019-02-10T06:16:17.578Z,3.10
2019-02-10T06:17:17.646Z,2.30
2019-02-10T06:18:17.556Z,2.20
2019-02-10T06:19:17.566Z,3.10
2019-02-10T06:20:17.532Z,2.10
2019-02-10T06:21:17.535Z,3.00
2019-02-10T06:22:17.508Z,2.80
2019-02-10T06:23:17.500Z,2.50
2019-02-10T06:24:17.492Z,2.60
2019-02-10T06:25:17.489Z,2.40
2019-02-10T06:26:17.472Z,2.60
2019-02-10T06:27:17.459Z,3.50
2019-02-10T06:28:17.448Z,2.60
2019-02-10T06:29:17.445Z,2.40
2019-02-10T06:30:17.492Z,2.70
2019-02-10T06:31:17.411Z,2.50
2019-02-10T06:32:17.401Z,2.20
2019-02-10T06:33:17.389Z,2.30
2019-02-10T06:34:17.411Z,3.00
2019-02-10T06:35:17.375Z,2.30
2019-02-10T06:36:17.375Z,2.40
2019-02-10T06:37:17.352Z,2.60
2019-02-10T06:38:22.381Z,3.00
2019-02-10T06:39:18.325Z,2.70
2019-02-10T06:40:17.319Z,3.30
2019-02-10T06:41:17.307Z,2.20
2019-02-10T06:42:18.074Z,2.40
2019-02-10T06:43:24.495Z,8.30
2019-02-10T06:44:48.139Z,2.40
2019-02-10T06:45:48.116Z,2.80
2019-02-10T06:47:30.284Z,2.80
2019-02-10T06:48:30.274Z,2.80
2019-02-10T06:49:30.260Z,3.20
2019-02-10T06:50:30.245Z,3.30
2019-02-10T06:51:30.241Z,3.20
2019-02-10T06:52:30.238Z,2.30
2019-02-10T06:53:37.449Z,2.90
2019-02-10T06:55:11.898Z,2.80
2019-02-10T06:56:11.866Z,2.70
2019-02-10T06:57:53.539Z,2.50
2019-02-10T06:58:53.518Z,2.80
2019-02-10T07:00:35.195Z,2.60
2019-02-10T07:01:35.176Z,2.40
2019-02-10T07:02:35.164Z,2.70
2019-02-10T07:03:35.156Z,2.80
2019-02-10T07:04:35.145Z,2.80
2019-02-10T07:05:35.140Z,2.60
2019-02-10T07:06:35.118Z,2.20
2019-02-10T07:07:35.138Z,2.60
2019-02-10T07:08:35.115Z,3.10
2019-02-10T07:09:35.085Z,2.60
2019-02-10T07:10:35.107Z,2.60
2019-02-10T07:11:35.066Z,2.80
2019-02-10T07:12:35.051Z,2.70
2019-02-10T07:13:35.051Z,2.70
2019-02-10T07:14:35.035Z,2.80
2019-02-10T07:15:35.023Z,2.90
2019-02-10T07:16:35.019Z,2.70
2019-02-10T07:17:34.997Z,3.10
2019-02-10T07:18:35.175Z,2.60
2019-02-10T07:19:34.981Z,3.40
2019-02-10T07:20:34.963Z,2.90
2019-02-10T07:21:34.981Z,2.40
2019-02-10T07:22:34.945Z,2.70
2019-02-10T07:23:34.934Z,2.50
2019-02-10T07:24:34.924Z,2.50
2019-02-10T07:25:34.910Z,2.80
2019-02-10T07:26:34.902Z,2.90
2019-02-10T07:27:34.900Z,3.20
2019-02-10T07:28:34.877Z,2.60
2019-02-10T07:29:34.872Z,3.30
2019-02-10T07:30:34.865Z,2.70
2019-02-10T07:31:34.845Z,2.90
2019-02-10T07:32:34.852Z,3.10
2019-02-10T07:33:34.822Z,2.60
2019-02-10T07:34:34.818Z,2.90
2019-02-10T07:35:34.809Z,3.20
2019-02-10T07:36:34.794Z,2.60
2019-02-10T07:37:34.787Z,2.90
2019-02-10T07:38:38.795Z,3.00
2019-02-10T07:39:34.759Z,2.80
2019-02-10T07:40:34.760Z,3.10
2019-02-10T07:41:34.735Z,2.80
2019-02-10T07:42:34.732Z,2.60
2019-02-10T07:43:34.718Z,3.10
2019-02-10T07:44:34.710Z,2.80
2019-02-10T07:45:34.698Z,3.30
2019-02-10T07:46:34.799Z,4.60
2019-02-10T07:47:34.680Z,2.70
2019-02-10T07:48:34.676Z,2.90
2019-02-10T07:49:34.659Z,3.00
2019-02-10T07:50:35.784Z,3.20
2019-02-10T07:51:34.632Z,3.10
2019-02-10T07:52:34.620Z,3.70
2019-02-10T07:53:34.610Z,3.30
2019-02-10T07:54:41.968Z,3.20
2019-02-10T07:55:35.658Z,3.20
2019-02-10T07:56:34.571Z,4.30
2019-02-10T07:57:34.563Z,4.10
2019-02-10T07:58:34.563Z,4.20
2019-02-10T07:59:34.543Z,3.20
2019-02-10T08:00:34.541Z,3.90
2019-02-10T08:01:34.523Z,3.40
2019-02-10T08:02:34.509Z,3.30
2019-02-10T08:03:34.520Z,3.80
2019-02-10T08:04:34.487Z,3.20
2019-02-10T08:05:34.479Z,3.20
2019-02-10T08:06:34.466Z,3.50
2019-02-10T08:07:34.457Z,2.90
2019-02-10T08:08:34.443Z,3.90
2019-02-10T08:09:34.443Z,3.60
2019-02-10T08:10:34.421Z,4.30
2019-02-10T08:11:34.423Z,3.10
2019-02-10T08:12:34.400Z,3.50
2019-02-10T08:13:34.393Z,3.70
2019-02-10T08:14:34.397Z,3.30
2019-02-10T08:15:34.362Z,3.10
2019-02-10T08:16:34.355Z,2.70
2019-02-10T08:17:34.361Z,3.20
2019-02-10T08:18:34.414Z,3.10
2019-02-10T08:19:34.330Z,3.10
2019-02-10T08:20:34.311Z,3.40
2019-02-10T08:21:34.305Z,3.30
2019-02-10T08:22:34.305Z,4.00
2019-02-10T08:23:34.280Z,2.70
2019-02-10T08:24:34.296Z,3.00
2019-02-10T08:25:34.268Z,3.20
2019-02-10T08:26:34.259Z,2.80
2019-02-10T08:27:34.246Z,3.50
2019-02-10T08:28:34.224Z,4.10
2019-02-10T08:29:34.268Z,2.70
2019-02-10T08:30:34.204Z,3.50
2019-02-10T08:31:34.242Z,3.70
2019-02-10T08:32:34.186Z,3.50
2019-02-10T08:33:34.169Z,4.10
2019-02-10T08:34:34.169Z,3.10
2019-02-10T08:35:34.148Z,3.70
2019-02-10T08:36:34.137Z,3.70
2019-02-10T08:37:34.124Z,3.80
2019-02-10T08:38:34.114Z,3.40
2019-02-10T08:39:34.105Z,2.80
2019-02-10T08:40:34.099Z,2.80
2019-02-10T08:41:34.091Z,3.00
2019-02-10T08:42:34.072Z,3.60
2019-02-10T08:43:34.058Z,3.50
2019-02-10T08:44:34.056Z,4.20
2019-02-10T08:45:34.042Z,3.90
2019-02-10T08:46:34.031Z,4.10
2019-02-10T08:47:34.098Z,3.90
2019-02-10T08:48:34.005Z,3.40
2019-02-10T08:49:33.997Z,3.90
2019-02-10T08:50:33.985Z,3.40
2019-02-10T08:51:34.013Z,3.60
2019-02-10T08:52:33.959Z,3.70
2019-02-10T08:53:33.986Z,3.40
2019-02-10T08:54:33.939Z,3.90
2019-02-10T08:55:33.977Z,5.60
2019-02-10T08:56:33.915Z,3.60
2019-02-10T08:57:33.951Z,3.60
2019-02-10T08:58:33.913Z,3.70
2019-02-10T08:59:33.884Z,4.30
2019-02-10T09:00:33.876Z,3.50
2019-02-10T09:01:33.950Z,2.60
2019-02-10T09:02:33.859Z,3.40
2019-02-10T09:03:33.847Z,3.80
2019-02-10T09:04:33.842Z,3.80
2019-02-10T09:05:33.823Z,3.40
2019-02-10T09:06:33.946Z,3.50
2019-02-10T09:07:33.899Z,3.70
2019-02-10T09:08:33.939Z,4.00
2019-02-10T09:09:33.793Z,3.60
2019-02-10T09:10:33.892Z,4.20
2019-02-10T09:11:33.881Z,4.30
2019-02-10T09:12:33.959Z,3.80
2019-02-10T09:13:33.733Z,4.00
2019-02-10T09:14:33.753Z,5.40
2019-02-10T09:15:33.752Z,4.90
2019-02-10T09:16:33.887Z,5.30
2019-02-10T09:17:33.719Z,5.40
2019-02-10T09:18:33.831Z,5.30
2019-02-10T09:19:33.674Z,5.20
2019-02-10T09:20:33.711Z,5.00
2019-02-10T09:21:33.674Z,7.80
2019-02-10T09:22:33.652Z,6.20
2019-02-10T09:23:33.698Z,5.40
2019-02-10T09:24:33.619Z,5.70
2019-02-10T09:25:33.619Z,6.00
2019-02-10T09:26:33.648Z,5.40
2019-02-10T09:27:33.595Z,5.50
2019-02-10T09:28:33.580Z,4.30
2019-02-10T09:29:33.567Z,5.00
2019-02-10T09:30:33.558Z,4.30
2019-02-10T09:31:33.591Z,4.60
2019-02-10T09:32:33.559Z,6.60
2019-02-10T09:33:33.535Z,4.30
2019-02-10T09:34:33.517Z,4.80
2019-02-10T09:35:33.825Z,4.40
2019-02-10T09:36:33.742Z,4.70
2019-02-10T09:37:33.491Z,5.80
2019-02-10T09:38:34.261Z,4.50
2019-02-10T09:39:33.481Z,4.90
2019-02-10T09:40:33.447Z,4.90
2019-02-10T09:41:33.447Z,4.70
2019-02-10T09:42:33.432Z,5.00
2019-02-10T09:43:33.428Z,4.90
2019-02-10T09:44:33.437Z,4.80
2019-02-10T09:45:33.396Z,4.90
2019-02-10T09:46:33.381Z,4.70
2019-02-10T09:47:33.381Z,5.60
2019-02-10T09:48:33.361Z,5.20
2019-02-10T09:49:33.365Z,5.00
2019-02-10T09:50:33.415Z,4.40
2019-02-10T09:51:33.321Z,4.80
2019-02-10T09:52:33.345Z,5.00
2019-02-10T09:53:33.325Z,4.70
2019-02-10T09:54:33.296Z,3.80
2019-02-10T09:55:33.293Z,4.60
2019-02-10T09:56:33.360Z,4.80
2019-02-10T09:57:33.261Z,4.30
2019-02-10T09:58:33.253Z,5.00
2019-02-10T09:59:33.249Z,4.30
2019-02-10T10:00:33.291Z,5.10
2019-02-10T10:01:33.250Z,5.10
2019-02-10T10:02:33.207Z,4.10
2019-02-10T10:03:33.191Z,4.60
2019-02-10T10:04:33.178Z,5.30
2019-02-10T10:05:33.180Z,4.30
2019-02-10T10:06:33.173Z,4.70
2019-02-10T10:07:33.168Z,4.60
2019-02-10T10:08:33.141Z,5.60
2019-02-10T10:09:33.149Z,4.90
2019-02-10T10:10:33.141Z,4.30
2019-02-10T10:11:33.110Z,5.40
2019-02-10T10:12:33.130Z,4.50
2019-02-10T10:13:33.152Z,4.00
2019-02-10T10:14:33.082Z,4.70
2019-02-10T10:15:33.064Z,4.50
2019-02-10T10:16:33.050Z,5.00
2019-02-10T10:17:33.050Z,4.60
2019-02-10T10:18:33.042Z,4.10
2019-02-10T10:19:33.089Z,5.00
2019-02-10T10:20:33.008Z,4.50
2019-02-10T10:21:33.000Z,5.20
2019-02-10T10:22:32.989Z,5.20
2019-02-10T10:23:32.987Z,5.30
2019-02-10T10:24:32.973Z,5.80
2019-02-10T10:25:32.954Z,5.80
2019-02-10T10:26:32.944Z,5.70
2019-02-10T10:27:32.935Z,5.70
2019-02-10T10:28:32.930Z,6.30
2019-02-10T10:29:32.937Z,4.30
2019-02-10T10:30:32.921Z,5.00
2019-02-10T10:31:32.980Z,5.20
2019-02-10T10:32:32.938Z,6.10
2019-02-10T10:33:32.881Z,5.20
2019-02-10T10:34:32.876Z,5.60
2019-02-10T10:35:32.875Z,5.00
2019-02-10T10:36:32.839Z,6.10
2019-02-10T10:37:32.885Z,5.80
2019-02-10T10:38:32.814Z,5.40
2019-02-10T10:39:32.805Z,5.70
2019-02-10T10:40:32.846Z,7.10
2019-02-10T10:41:32.819Z,7.20
2019-02-10T10:42:32.883Z,5.90
2019-02-10T10:43:32.780Z,6.90
2019-02-10T10:44:32.754Z,6.60
2019-02-10T10:45:32.764Z,6.00
2019-02-10T10:46:32.740Z,5.20
2019-02-10T10:47:32.774Z,4.60
2019-02-10T10:48:32.758Z,4.50
2019-02-10T10:49:32.700Z,4.90
2019-02-10T10:50:32.703Z,5.00
2019-02-10T10:51:32.710Z,4.70
2019-02-10T10:52:32.674Z,5.40
2019-02-10T10:53:32.688Z,5.60
2019-02-10T10:54:32.632Z,5.40
2019-02-10T10:55:32.624Z,4.80
2019-02-10T10:56:32.640Z,5.30
2019-02-10T10:57:32.608Z,5.20
2019-02-10T10:58:32.610Z,4.70
2019-02-10T10:59:32.594Z,4.50
2019-02-10T11:00:32.571Z,5.20
2019-02-10T11:01:32.582Z,4.80
2019-02-10T11:02:32.566Z,6.10
2019-02-10T11:03:32.550Z,5.40
2019-02-10T11:04:32.550Z,5.60
2019-02-10T11:05:32.518Z,4.60
2019-02-10T11:06:33.988Z,5.80
2019-02-10T11:07:32.510Z,5.70
2019-02-10T11:08:32.510Z,5.80
2019-02-10T11:09:35.556Z,7.00
2019-02-10T11:10:32.493Z,6.20
2019-02-10T11:11:32.466Z,6.70
2019-02-10T11:12:32.441Z,6.10
2019-02-10T11:13:32.435Z,6.90
2019-02-10T11:14:32.437Z,5.70
2019-02-10T11:15:32.423Z,6.60
2019-02-10T11:16:32.411Z,6.70
2019-02-10T11:17:32.395Z,6.50
2019-02-10T11:18:32.383Z,6.50
2019-02-10T11:19:32.373Z,5.50
2019-02-10T11:20:32.362Z,5.60
2019-02-10T11:21:32.368Z,6.00
2019-02-10T11:22:32.343Z,5.30
2019-02-10T11:23:32.331Z,4.70
2019-02-10T11:24:32.318Z,4.90
2019-02-10T11:25:32.336Z,5.00
2019-02-10T11:26:32.310Z,4.00
2019-02-10T11:27:32.299Z,4.90
2019-02-10T11:28:32.285Z,4.50
2019-02-10T11:29:32.321Z,5.00
2019-02-10T11:30:32.251Z,4.50
2019-02-10T11:31:32.272Z,4.50
2019-02-10T11:32:32.242Z,4.60
2019-02-10T11:33:32.227Z,4.10
2019-02-10T11:34:32.224Z,4.40
2019-02-10T11:35:32.209Z,5.00
2019-02-10T11:36:32.185Z,4.10
2019-02-10T11:37:32.188Z,4.20
2019-02-10T11:38:32.200Z,4.50
2019-02-10T11:39:32.152Z,4.20
2019-02-10T11:40:32.199Z,4.40
2019-02-10T11:41:32.156Z,4.50
2019-02-10T11:42:32.133Z,4.10
2019-02-10T11:43:32.141Z,4.10
2019-02-10T11:44:32.140Z,4.10
2019-02-10T11:45:32.134Z,4.20
2019-02-10T11:46:32.071Z,4.60
2019-02-10T11:47:32.081Z,4.60
2019-02-10T11:48:32.116Z,4.40
2019-02-10T11:49:32.054Z,4.30
2019-02-10T11:50:32.049Z,4.50
2019-02-10T11:51:32.078Z,4.30
2019-02-10T11:52:32.011Z,4.90
2019-02-10T11:53:32.001Z,4.80
2019-02-10T11:54:32.009Z,4.80
2019-02-10T11:55:31.996Z,4.10
2019-02-10T11:56:32.021Z,4.50
2019-02-10T11:57:31.964Z,4.70
2019-02-10T11:58:31.941Z,5.00
2019-02-10T11:59:31.937Z,4.90
2019-02-10T12:00:31.947Z,5.50
2019-02-10T12:01:31.988Z,4.40
2019-02-10T12:02:37.925Z,5.10
2019-02-10T12:03:32.891Z,4.40
2019-02-10T12:04:31.889Z,4.60
2019-02-10T12:05:31.870Z,4.40
2019-02-10T12:06:31.891Z,4.30
2019-02-10T12:07:31.906Z,4.10
2019-02-10T12:08:35.714Z,4.10
2019-02-10T12:09:31.844Z,4.30
2019-02-10T12:10:31.811Z,4.50
2019-02-10T12:11:31.831Z,5.10
2019-02-10T12:12:31.925Z,4.40
2019-02-10T12:13:31.792Z,4.50
2019-02-10T12:14:31.767Z,4.40
2019-02-10T12:15:31.773Z,4.10
2019-02-10T12:16:31.744Z,4.30
2019-02-10T12:17:31.757Z,4.70
2019-02-10T12:18:31.788Z,4.80
2019-02-10T12:19:31.737Z,4.60
2019-02-10T12:20:31.711Z,4.70
2019-02-10T12:21:31.695Z,4.60
2019-02-10T12:22:31.702Z,4.90
2019-02-10T12:23:31.699Z,4.90
2019-02-10T12:24:31.671Z,4.40
2019-02-10T12:25:31.648Z,5.40
2019-02-10T12:26:31.650Z,4.60
2019-02-10T12:27:31.639Z,5.90
2019-02-10T12:28:31.631Z,4.60
2019-02-10T12:29:31.619Z,5.10
2019-02-10T12:30:31.654Z,5.30
2019-02-10T12:31:31.631Z,4.20
2019-02-10T12:32:31.576Z,3.90
2019-02-10T12:33:31.571Z,4.30
2019-02-10T12:34:31.648Z,4.50
2019-02-10T12:35:31.568Z,4.40
2019-02-10T12:36:31.553Z,3.90
2019-02-10T12:37:32.726Z,4.50
2019-02-10T12:38:31.617Z,3.60
2019-02-10T12:39:31.513Z,3.70
2019-02-10T12:40:31.497Z,3.10
2019-02-10T12:41:31.494Z,3.50
2019-02-10T12:42:31.490Z,3.50
2019-02-10T12:43:31.452Z,3.90
2019-02-10T12:44:31.447Z,3.60
2019-02-10T12:45:31.511Z,3.60
2019-02-10T12:46:31.469Z,3.50
2019-02-10T12:47:31.437Z,3.60
2019-02-10T12:48:31.472Z,3.50
2019-02-10T12:49:31.428Z,3.70
2019-02-10T12:50:31.393Z,3.20
2019-02-10T12:51:31.386Z,3.90
2019-02-10T12:52:31.426Z,3.40
2019-02-10T12:53:31.357Z,3.50
2019-02-10T12:54:31.363Z,2.90
2019-02-10T12:55:31.338Z,2.80
2019-02-10T12:56:31.387Z,2.70
2019-02-10T12:57:31.309Z,2.80
2019-02-10T12:58:31.298Z,3.40
2019-02-10T12:59:31.280Z,3.20
2019-02-10T13:00:31.273Z,3.40
2019-02-10T13:01:31.251Z,3.40
2019-02-10T13:02:31.272Z,3.50
2019-02-10T13:03:31.231Z,3.70
2019-02-10T13:04:31.228Z,3.80
2019-02-10T13:05:31.211Z,3.20
2019-02-10T13:06:31.205Z,3.10
2019-02-10T13:07:31.197Z,3.20
2019-02-10T13:08:31.185Z,3.30
2019-02-10T13:09:31.171Z,3.70
2019-02-10T13:10:31.160Z,3.20
2019-02-10T13:11:31.140Z,2.80
2019-02-10T13:12:31.140Z,3.10
2019-02-10T13:13:31.187Z,3.10
2019-02-10T13:14:31.110Z,3.30
2019-02-10T13:15:31.125Z,3.10
2019-02-10T13:16:31.088Z,2.80
2019-02-10T13:17:31.070Z,3.20
2019-02-10T13:18:31.069Z,3.20
2019-02-10T13:19:31.081Z,3.20
2019-02-10T13:20:31.143Z,3.30
2019-02-10T13:21:31.052Z,3.40
2019-02-10T13:22:31.026Z,3.40